NCAR-RAP Real-Time Weather Data

Output produced by METARs form (10 April 2020  06:55 UTC)
found at http://weather.rap.ucar.edu/surface/
 
KBUF 100554Z 26014G22KT 10SM FEW022 BKN055 BKN110 02/M02 A2942 RMK AO2 SLP968 60002 T00171022 10033 20011 56009 $